createdAt,value
2022-11-24T00:00:18.141Z,0.00
2022-11-24T00:01:18.155Z,0.00
2022-11-24T00:02:18.242Z,0.00
2022-11-24T00:03:18.275Z,0.00
2022-11-24T00:04:18.108Z,0.00
2022-11-24T00:05:18.205Z,0.00
2022-11-24T00:06:18.146Z,0.00
2022-11-24T00:07:18.079Z,0.00
2022-11-24T00:08:18.105Z,0.00
2022-11-24T00:09:18.070Z,0.00
2022-11-24T00:10:18.043Z,0.00
2022-11-24T00:11:18.026Z,0.00
2022-11-24T00:12:18.031Z,0.00
2022-11-24T00:13:18.022Z,0.00
2022-11-24T00:14:18.007Z,0.00
2022-11-24T00:15:18.030Z,0.00
2022-11-24T00:16:18.019Z,0.00
2022-11-24T00:17:17.995Z,0.00
2022-11-24T00:18:17.995Z,0.00
2022-11-24T00:19:19.865Z,0.00
2022-11-24T00:20:17.945Z,0.00
2022-11-24T00:21:18.010Z,0.00
2022-11-24T00:22:17.946Z,0.00
2022-11-24T00:23:17.940Z,0.00
2022-11-24T00:24:17.908Z,0.00
2022-11-24T00:25:17.972Z,0.00
2022-11-24T00:26:17.928Z,0.00
2022-11-24T00:27:17.858Z,0.00
2022-11-24T00:28:17.937Z,0.00
2022-11-24T00:29:17.849Z,0.00
2022-11-24T00:30:17.821Z,0.00
2022-11-24T00:31:18.067Z,0.00
2022-11-24T00:32:17.818Z,0.00
2022-11-24T00:33:17.808Z,0.00
2022-11-24T00:34:17.789Z,0.00
2022-11-24T00:35:17.787Z,0.00
2022-11-24T00:36:17.791Z,0.00
2022-11-24T00:37:17.793Z,0.00
2022-11-24T00:38:17.792Z,0.00
2022-11-24T00:39:17.737Z,0.00
2022-11-24T00:40:17.725Z,0.00
2022-11-24T00:41:17.717Z,0.00
2022-11-24T00:42:17.706Z,0.00
2022-11-24T00:43:17.779Z,0.00
2022-11-24T00:44:17.683Z,0.00
2022-11-24T00:45:17.666Z,0.00
2022-11-24T00:46:17.741Z,0.00
2022-11-24T00:47:17.724Z,0.00
2022-11-24T00:48:17.651Z,0.00
2022-11-24T00:49:17.763Z,0.00
2022-11-24T00:50:17.608Z,0.00
2022-11-24T00:51:17.599Z,0.00
2022-11-24T00:52:17.618Z,0.00
2022-11-24T00:53:17.601Z,0.00
2022-11-24T00:54:17.599Z,0.00
2022-11-24T00:55:17.570Z,0.00
2022-11-24T00:56:17.560Z,0.00
2022-11-24T00:57:17.598Z,0.00
2022-11-24T00:58:17.554Z,0.00
2022-11-24T00:59:17.512Z,0.00
2022-11-24T01:00:17.509Z,0.00
2022-11-24T01:01:17.553Z,0.00
2022-11-24T01:02:17.512Z,0.00
2022-11-24T01:03:17.546Z,0.00
2022-11-24T01:04:17.461Z,0.00
2022-11-24T01:05:17.532Z,0.00
2022-11-24T01:06:17.501Z,0.00
2022-11-24T01:07:17.486Z,0.00
2022-11-24T01:08:17.446Z,0.00
2022-11-24T01:09:17.444Z,0.00
2022-11-24T01:10:17.414Z,0.00
2022-11-24T01:11:17.402Z,0.00
2022-11-24T01:12:17.380Z,0.00
2022-11-24T01:13:17.386Z,0.00
2022-11-24T01:14:17.355Z,0.00
2022-11-24T01:15:17.353Z,0.00
2022-11-24T01:16:17.388Z,0.00
2022-11-24T01:17:17.331Z,0.00
2022-11-24T01:18:17.388Z,0.00
2022-11-24T01:19:17.376Z,0.00
2022-11-24T01:20:17.328Z,0.00
2022-11-24T01:21:17.279Z,0.00
2022-11-24T01:22:17.315Z,0.00
2022-11-24T01:23:17.283Z,0.00
2022-11-24T01:24:17.243Z,0.00
2022-11-24T01:25:17.391Z,0.00
2022-11-24T01:26:17.244Z,0.00
2022-11-24T01:27:17.213Z,0.00
2022-11-24T01:28:17.222Z,0.00
2022-11-24T01:29:17.192Z,0.00
2022-11-24T01:30:17.228Z,0.00
2022-11-24T01:31:17.236Z,0.00
2022-11-24T01:32:17.160Z,0.00
2022-11-24T01:33:17.167Z,0.00
2022-11-24T01:34:17.144Z,0.00
2022-11-24T01:35:17.137Z,0.00
2022-11-24T01:36:17.163Z,0.00
2022-11-24T01:37:17.276Z,0.00
2022-11-24T01:38:17.115Z,0.00
2022-11-24T01:39:17.096Z,0.00
2022-11-24T01:40:17.161Z,0.00
2022-11-24T01:41:17.069Z,0.00
2022-11-24T01:42:17.084Z,0.00
2022-11-24T01:43:17.073Z,0.00
2022-11-24T01:44:17.071Z,0.00
2022-11-24T01:45:17.033Z,0.00
2022-11-24T01:46:17.117Z,0.00
2022-11-24T01:47:17.001Z,0.00
2022-11-24T01:48:17.031Z,0.00
2022-11-24T01:49:16.996Z,0.00
2022-11-24T01:50:17.014Z,0.00
2022-11-24T01:51:16.961Z,0.00
2022-11-24T01:52:16.948Z,0.00
2022-11-24T01:53:16.972Z,0.00
2022-11-24T01:54:16.945Z,0.00
2022-11-24T01:55:16.915Z,0.00
2022-11-24T01:56:16.974Z,0.00
2022-11-24T01:57:16.911Z,0.00
2022-11-24T01:58:16.921Z,0.00
2022-11-24T01:59:16.951Z,0.00
2022-11-24T02:00:16.859Z,0.00
2022-11-24T02:01:16.887Z,0.00
2022-11-24T02:02:16.915Z,0.00
2022-11-24T02:03:16.923Z,0.00
2022-11-24T02:04:16.819Z,0.00
2022-11-24T02:05:16.810Z,0.00
2022-11-24T02:06:16.825Z,0.00
2022-11-24T02:07:16.819Z,0.00
2022-11-24T02:08:16.815Z,0.00
2022-11-24T02:09:16.840Z,0.00
2022-11-24T02:10:16.755Z,0.00
2022-11-24T02:11:16.744Z,0.00
2022-11-24T02:12:16.769Z,0.00
2022-11-24T02:13:16.751Z,0.00
2022-11-24T02:14:16.764Z,0.00
2022-11-24T02:15:16.702Z,0.00
2022-11-24T02:16:16.944Z,0.00
2022-11-24T02:17:16.711Z,0.00
2022-11-24T02:18:16.667Z,0.00
2022-11-24T02:19:16.687Z,0.00
2022-11-24T02:20:16.672Z,0.00
2022-11-24T02:21:16.680Z,0.00
2022-11-24T02:22:16.627Z,0.00
2022-11-24T02:23:16.653Z,0.00
2022-11-24T02:24:16.724Z,0.00
2022-11-24T02:25:16.606Z,0.00
2022-11-24T02:26:16.596Z,0.00
2022-11-24T02:27:16.661Z,0.00
2022-11-24T02:28:16.578Z,0.00
2022-11-24T02:29:16.552Z,0.00
2022-11-24T02:30:16.745Z,0.00
2022-11-24T02:31:16.614Z,0.00
2022-11-24T02:32:16.572Z,0.00
2022-11-24T02:33:16.536Z,0.00
2022-11-24T02:34:16.504Z,0.00
2022-11-24T02:35:16.503Z,0.00
2022-11-24T02:36:16.483Z,0.00
2022-11-24T02:37:16.480Z,0.00
2022-11-24T02:38:16.564Z,0.00
2022-11-24T02:39:16.458Z,0.00
2022-11-24T02:40:16.441Z,0.00
2022-11-24T02:41:16.428Z,0.00
2022-11-24T02:42:16.412Z,0.00
2022-11-24T02:43:16.432Z,0.00
2022-11-24T02:44:16.400Z,0.00
2022-11-24T02:45:16.391Z,0.00
2022-11-24T02:46:16.430Z,0.00
2022-11-24T02:47:16.365Z,0.00
2022-11-24T02:48:16.379Z,0.00
2022-11-24T02:49:16.476Z,0.00
2022-11-24T02:50:16.350Z,0.00
2022-11-24T02:51:16.319Z,0.00
2022-11-24T02:52:16.333Z,0.00
2022-11-24T02:53:16.319Z,0.00
2022-11-24T02:54:16.348Z,0.00
2022-11-24T02:55:16.289Z,0.00
2022-11-24T02:56:16.270Z,0.00
2022-11-24T02:57:16.294Z,0.00
2022-11-24T02:58:16.280Z,0.00
2022-11-24T02:59:16.252Z,0.00
2022-11-24T03:00:16.227Z,0.00
2022-11-24T03:01:16.257Z,0.00
2022-11-24T03:02:16.337Z,0.00
2022-11-24T03:03:16.273Z,0.00
2022-11-24T03:04:16.250Z,0.00
2022-11-24T03:05:16.173Z,0.00
2022-11-24T03:06:16.164Z,0.00
2022-11-24T03:07:16.199Z,0.00
2022-11-24T03:08:16.205Z,0.00
2022-11-24T03:09:16.131Z,0.00
2022-11-24T03:10:16.204Z,0.00
2022-11-24T03:11:16.103Z,0.00
2022-11-24T03:12:16.136Z,0.00
2022-11-24T03:13:16.375Z,0.00
2022-11-24T03:14:16.121Z,0.00
2022-11-24T03:15:16.079Z,0.00
2022-11-24T03:16:16.194Z,0.00
2022-11-24T03:17:16.075Z,0.00
2022-11-24T03:18:16.079Z,0.00
2022-11-24T03:19:16.020Z,0.00
2022-11-24T03:20:16.071Z,0.00
2022-11-24T03:21:16.009Z,0.00
2022-11-24T03:22:16.026Z,0.00
2022-11-24T03:23:16.000Z,0.00
2022-11-24T03:24:15.966Z,0.00
2022-11-24T03:25:15.961Z,0.00
2022-11-24T03:26:15.964Z,0.00
2022-11-24T03:27:15.937Z,0.00
2022-11-24T03:28:15.965Z,0.00
2022-11-24T03:29:15.937Z,0.00
2022-11-24T03:30:15.916Z,0.00
2022-11-24T03:31:15.972Z,0.00
2022-11-24T03:32:15.895Z,0.00
2022-11-24T03:33:15.880Z,0.00
2022-11-24T03:34:15.979Z,0.00
2022-11-24T03:35:15.850Z,0.00
2022-11-24T03:36:15.916Z,0.00
2022-11-24T03:37:15.832Z,0.00
2022-11-24T03:38:15.858Z,0.00
2022-11-24T03:39:15.850Z,0.00
2022-11-24T03:40:15.811Z,0.00
2022-11-24T03:41:15.794Z,0.00
2022-11-24T03:42:15.829Z,0.00
2022-11-24T03:43:15.974Z,0.00
2022-11-24T03:44:15.806Z,0.00
2022-11-24T03:45:44.073Z,0.00
2022-11-24T03:46:16.807Z,0.00
2022-11-24T03:47:15.727Z,0.00
2022-11-24T03:48:15.765Z,0.00
2022-11-24T03:49:15.804Z,0.00
2022-11-24T03:50:15.731Z,0.00
2022-11-24T03:51:15.697Z,0.00
2022-11-24T03:52:15.682Z,0.00
2022-11-24T03:53:15.723Z,0.00
2022-11-24T03:54:15.657Z,0.00
2022-11-24T03:55:15.680Z,0.00
2022-11-24T03:56:15.638Z,0.00
2022-11-24T03:57:15.640Z,0.00
2022-11-24T03:58:15.642Z,0.00
2022-11-24T03:59:15.614Z,0.00
2022-11-24T04:00:15.597Z,0.00
2022-11-24T04:01:15.625Z,0.00
2022-11-24T04:02:15.591Z,0.00
2022-11-24T04:03:15.611Z,0.00
2022-11-24T04:04:15.551Z,0.00
2022-11-24T04:05:15.567Z,0.00
2022-11-24T04:06:15.557Z,0.00
2022-11-24T04:07:15.596Z,0.00
2022-11-24T04:08:15.545Z,0.00
2022-11-24T04:09:15.542Z,0.00
2022-11-24T04:10:15.497Z,0.00
2022-11-24T04:11:15.471Z,0.00
2022-11-24T04:12:15.463Z,0.00
2022-11-24T04:13:15.481Z,0.00
2022-11-24T04:14:15.466Z,0.00
2022-11-24T04:15:15.435Z,0.00
2022-11-24T04:16:15.516Z,0.00
2022-11-24T04:17:15.433Z,0.00
2022-11-24T04:18:15.444Z,0.00
2022-11-24T04:19:15.478Z,0.00
2022-11-24T04:20:15.527Z,0.00
2022-11-24T04:21:15.364Z,0.00
2022-11-24T04:22:15.379Z,0.00
2022-11-24T04:23:15.429Z,0.00
2022-11-24T04:24:15.443Z,0.00
2022-11-24T04:25:15.340Z,0.00
2022-11-24T04:26:15.350Z,0.00
2022-11-24T04:27:15.316Z,0.00
2022-11-24T04:28:15.348Z,0.00
2022-11-24T04:29:15.279Z,0.00
2022-11-24T04:30:15.284Z,0.00
2022-11-24T04:31:15.337Z,0.00
2022-11-24T04:32:15.339Z,0.00
2022-11-24T04:33:15.256Z,0.00
2022-11-24T04:34:15.306Z,0.00
2022-11-24T04:35:15.218Z,0.00
2022-11-24T04:36:15.255Z,0.00
2022-11-24T04:37:15.206Z,0.00
2022-11-24T04:39:24.086Z,0.00
2022-11-24T04:39:24.477Z,0.00
2022-11-24T04:40:16.175Z,0.00
2022-11-24T04:41:15.151Z,0.00
2022-11-24T04:42:15.148Z,0.00
2022-11-24T04:43:15.252Z,0.00
2022-11-24T04:44:15.156Z,0.00
2022-11-24T04:45:15.109Z,0.00
2022-11-24T04:46:15.169Z,0.00
2022-11-24T04:47:15.114Z,0.00
2022-11-24T04:48:15.096Z,0.00
2022-11-24T04:49:15.063Z,0.00
2022-11-24T04:50:15.062Z,0.00
2022-11-24T04:51:15.042Z,0.00
2022-11-24T04:52:15.043Z,0.00
2022-11-24T04:53:15.050Z,0.00
2022-11-24T04:54:15.032Z,0.00
2022-11-24T04:55:15.002Z,0.00
2022-11-24T04:56:15.021Z,0.00
2022-11-24T04:57:14.979Z,0.00
2022-11-24T04:58:14.997Z,0.00
2022-11-24T04:59:14.954Z,0.00
2022-11-24T05:00:14.967Z,0.00
2022-11-24T05:01:15.037Z,0.00
2022-11-24T05:02:14.966Z,0.00
2022-11-24T05:03:14.936Z,0.00
2022-11-24T05:04:14.957Z,0.00
2022-11-24T05:05:14.893Z,0.00
2022-11-24T05:06:14.883Z,0.00
2022-11-24T05:07:18.471Z,0.00
2022-11-24T05:08:15.194Z,0.00
2022-11-24T05:09:14.848Z,0.00
2022-11-24T05:10:14.871Z,0.00
2022-11-24T05:11:14.832Z,0.00
2022-11-24T05:12:14.818Z,0.00
2022-11-24T05:13:14.824Z,0.00
2022-11-24T05:14:14.816Z,0.00
2022-11-24T05:15:14.786Z,0.00
2022-11-24T05:16:14.831Z,0.00
2022-11-24T05:17:14.764Z,0.00
2022-11-24T05:18:14.789Z,0.00
2022-11-24T05:19:14.743Z,0.00
2022-11-24T05:20:14.745Z,0.00
2022-11-24T05:21:14.721Z,0.00
2022-11-24T05:22:14.718Z,0.00
2022-11-24T05:23:14.713Z,0.00
2022-11-24T05:24:14.694Z,0.00
2022-11-24T05:25:14.683Z,0.00
2022-11-24T05:26:14.692Z,0.00
2022-11-24T05:27:14.666Z,0.00
2022-11-24T05:28:14.662Z,0.00
2022-11-24T05:29:14.673Z,0.00
2022-11-24T05:30:14.637Z,0.00
2022-11-24T05:31:14.661Z,0.00
2022-11-24T05:32:14.615Z,0.00
2022-11-24T05:33:14.645Z,0.00
2022-11-24T05:34:14.602Z,0.00
2022-11-24T05:35:14.579Z,0.00
2022-11-24T05:36:14.570Z,0.00
2022-11-24T05:37:14.556Z,0.00
2022-11-24T05:38:14.589Z,0.00
2022-11-24T05:39:14.539Z,0.00
2022-11-24T05:40:14.517Z,0.00
2022-11-24T05:41:14.505Z,0.00
2022-11-24T05:42:14.521Z,0.00
2022-11-24T05:43:14.561Z,0.00
2022-11-24T05:44:14.485Z,0.00
2022-11-24T05:45:14.460Z,0.00
2022-11-24T05:46:14.504Z,0.00
2022-11-24T05:47:14.458Z,0.00
2022-11-24T05:48:14.459Z,0.00
2022-11-24T05:49:14.434Z,0.00
2022-11-24T05:50:14.409Z,0.00
2022-11-24T05:51:14.412Z,0.00
2022-11-24T05:52:14.459Z,0.00
2022-11-24T05:53:14.405Z,0.00
2022-11-24T05:54:14.408Z,0.00
2022-11-24T05:55:14.367Z,0.00
2022-11-24T05:56:14.346Z,0.00
2022-11-24T05:57:14.338Z,0.00
2022-11-24T05:58:14.387Z,0.00
2022-11-24T05:59:14.315Z,0.00
2022-11-24T06:00:14.305Z,0.00
2022-11-24T06:01:14.317Z,0.00
2022-11-24T06:02:14.522Z,0.00
2022-11-24T06:03:14.353Z,0.00
2022-11-24T06:04:14.261Z,0.00
2022-11-24T06:05:14.249Z,0.00
2022-11-24T06:06:14.239Z,0.00
2022-11-24T06:07:14.300Z,0.00
2022-11-24T06:08:14.273Z,0.00
2022-11-24T06:09:14.218Z,0.00
2022-11-24T06:10:14.227Z,0.00
2022-11-24T06:11:14.203Z,0.00
2022-11-24T06:12:14.175Z,0.00
2022-11-24T06:13:14.264Z,0.00
2022-11-24T06:14:14.173Z,0.00
2022-11-24T06:15:14.155Z,0.00
2022-11-24T06:16:14.187Z,0.00
2022-11-24T06:17:14.121Z,0.00
2022-11-24T06:18:14.140Z,0.00
2022-11-24T06:19:14.135Z,0.00
2022-11-24T06:20:14.112Z,0.00
2022-11-24T06:21:14.075Z,0.00
2022-11-24T06:22:14.077Z,0.00
2022-11-24T06:23:14.075Z,0.00
2022-11-24T06:24:14.045Z,0.00
2022-11-24T06:25:14.031Z,0.00
2022-11-24T06:26:14.029Z,0.00
2022-11-24T06:27:14.016Z,0.00
2022-11-24T06:28:14.568Z,0.00
2022-11-24T06:29:13.992Z,0.00
2022-11-24T06:30:14.013Z,0.00
2022-11-24T06:31:13.993Z,0.00
2022-11-24T06:32:13.958Z,0.00
2022-11-24T06:33:14.007Z,0.00
2022-11-24T06:34:13.938Z,0.00
2022-11-24T06:35:13.944Z,0.00
2022-11-24T06:36:13.932Z,0.00
2022-11-24T06:37:13.917Z,0.00
2022-11-24T06:38:13.923Z,0.00
2022-11-24T06:39:13.913Z,0.00
2022-11-24T06:40:13.907Z,0.00
2022-11-24T06:41:13.904Z,0.00
2022-11-24T06:42:13.863Z,0.00
2022-11-24T06:43:13.954Z,0.00
2022-11-24T06:44:13.830Z,0.00
2022-11-24T06:45:13.820Z,0.00
2022-11-24T06:46:13.915Z,0.00
2022-11-24T06:47:13.838Z,0.00
2022-11-24T06:48:14.208Z,0.00
2022-11-24T06:49:13.814Z,0.00
2022-11-24T06:50:13.802Z,5.62
2022-11-24T06:51:13.759Z,5.62
2022-11-24T06:52:13.744Z,11.25
2022-11-24T06:53:13.768Z,11.25
2022-11-24T06:54:13.741Z,11.25
2022-11-24T06:55:13.736Z,11.25
2022-11-24T06:56:16.681Z,11.25
2022-11-24T06:57:13.694Z,16.88
2022-11-24T06:58:13.677Z,16.88
2022-11-24T06:59:13.692Z,22.50
2022-11-24T07:00:13.674Z,22.50
2022-11-24T07:01:13.718Z,22.50
2022-11-24T07:02:13.693Z,28.12
2022-11-24T07:03:13.659Z,28.12
2022-11-24T07:04:13.631Z,28.12
2022-11-24T07:05:13.603Z,28.12
2022-11-24T07:06:13.590Z,28.12
2022-11-24T07:07:13.619Z,28.12
2022-11-24T07:08:17.832Z,22.50
2022-11-24T07:09:13.575Z,16.88
2022-11-24T07:10:13.549Z,16.88
2022-11-24T07:11:13.575Z,16.88
2022-11-24T07:12:13.530Z,22.50
2022-11-24T07:13:13.550Z,22.50
2022-11-24T07:14:13.625Z,22.50
2022-11-24T07:15:13.524Z,22.50
2022-11-24T07:16:13.609Z,22.50
2022-11-24T07:17:13.480Z,22.50
2022-11-24T07:18:13.564Z,22.50
2022-11-24T07:19:13.471Z,28.12
2022-11-24T07:20:13.490Z,28.12
2022-11-24T07:21:13.438Z,28.12
2022-11-24T07:22:13.435Z,33.75
2022-11-24T07:23:13.479Z,33.75
2022-11-24T07:24:13.417Z,33.75
2022-11-24T07:25:13.411Z,33.75
2022-11-24T07:26:13.376Z,39.38
2022-11-24T07:27:13.367Z,50.62
2022-11-24T07:28:13.438Z,50.62
2022-11-24T07:29:13.343Z,50.62
2022-11-24T07:30:13.355Z,45.00
2022-11-24T07:31:13.404Z,45.00
2022-11-24T07:32:13.352Z,45.00
2022-11-24T07:33:13.346Z,39.38
2022-11-24T07:34:13.356Z,33.75
2022-11-24T07:35:13.288Z,33.75
2022-11-24T07:36:13.272Z,39.38
2022-11-24T07:37:13.257Z,45.00
2022-11-24T07:38:13.246Z,50.62
2022-11-24T07:39:13.312Z,56.25
2022-11-24T07:40:13.248Z,56.25
2022-11-24T07:41:13.236Z,56.25
2022-11-24T07:42:13.205Z,61.88
2022-11-24T07:43:18.598Z,67.50
2022-11-24T07:44:14.185Z,73.12
2022-11-24T07:45:13.172Z,84.38
2022-11-24T07:46:13.331Z,84.38
2022-11-24T07:47:13.168Z,101.25
2022-11-24T07:48:13.161Z,106.88
2022-11-24T07:49:13.128Z,95.62
2022-11-24T07:50:13.139Z,90.00
2022-11-24T07:51:13.106Z,73.12
2022-11-24T07:52:13.099Z,56.25
2022-11-24T07:53:13.148Z,45.00
2022-11-24T07:54:13.074Z,45.00
2022-11-24T07:55:13.099Z,56.25
2022-11-24T07:56:13.052Z,67.50
2022-11-24T07:57:13.043Z,84.38
2022-11-24T07:58:13.046Z,95.62
2022-11-24T07:59:13.066Z,106.88
2022-11-24T08:00:13.008Z,106.88
2022-11-24T08:01:13.160Z,112.50
2022-11-24T08:02:13.075Z,123.75
2022-11-24T08:03:13.061Z,118.12
2022-11-24T08:04:13.026Z,123.75
2022-11-24T08:05:12.978Z,135.00
2022-11-24T08:06:32.588Z,157.50
2022-11-24T08:07:13.979Z,146.25
2022-11-24T08:08:12.938Z,129.38
2022-11-24T08:09:12.917Z,123.75
2022-11-24T08:10:12.901Z,135.00
2022-11-24T08:11:12.911Z,157.50
2022-11-24T08:12:12.937Z,174.38
2022-11-24T08:13:13.062Z,180.00
2022-11-24T08:14:12.856Z,157.50
2022-11-24T08:15:12.852Z,151.88
2022-11-24T08:16:12.960Z,151.88
2022-11-24T08:17:12.869Z,151.88
2022-11-24T08:18:12.836Z,157.50
2022-11-24T08:19:12.815Z,168.75
2022-11-24T08:20:12.803Z,180.00
2022-11-24T08:21:12.794Z,196.88
2022-11-24T08:22:12.791Z,219.38
2022-11-24T08:23:12.804Z,241.88
2022-11-24T08:24:12.758Z,258.75
2022-11-24T08:25:12.741Z,270.00
2022-11-24T08:26:13.025Z,286.88
2022-11-24T08:27:12.730Z,275.62
2022-11-24T08:28:12.720Z,236.25
2022-11-24T08:29:12.839Z,225.00
2022-11-24T08:30:12.699Z,264.38
2022-11-24T08:31:12.686Z,258.75
2022-11-24T08:32:17.404Z,241.88
2022-11-24T08:33:13.704Z,225.00
2022-11-24T08:34:12.663Z,202.50
2022-11-24T08:35:14.358Z,202.50
2022-11-24T08:36:12.628Z,196.88
2022-11-24T08:37:12.636Z,196.88
2022-11-24T08:38:12.638Z,196.88
2022-11-24T08:39:12.603Z,196.88
2022-11-24T08:40:12.622Z,191.25
2022-11-24T08:41:12.567Z,180.00
2022-11-24T08:42:12.556Z,185.62
2022-11-24T08:43:12.564Z,180.00
2022-11-24T08:44:28.751Z,180.00
2022-11-24T08:45:30.744Z,230.62
2022-11-24T08:46:28.822Z,253.12
2022-11-24T08:47:28.810Z,241.88
2022-11-24T08:48:29.025Z,230.62
2022-11-24T08:49:28.729Z,230.62
2022-11-24T08:50:28.700Z,247.50
2022-11-24T08:51:28.665Z,275.62
2022-11-24T08:52:28.712Z,292.50
2022-11-24T08:53:28.826Z,303.75
2022-11-24T08:54:28.632Z,320.62
2022-11-24T08:55:28.633Z,303.75
2022-11-24T08:56:28.639Z,264.38
2022-11-24T08:57:28.780Z,236.25
2022-11-24T08:58:28.618Z,230.62
2022-11-24T08:59:28.644Z,241.88
2022-11-24T09:00:28.611Z,286.88
2022-11-24T09:01:28.626Z,348.75
2022-11-24T09:02:28.689Z,337.50
2022-11-24T09:03:28.584Z,309.38
2022-11-24T09:04:28.662Z,286.88
2022-11-24T09:05:51.120Z,281.25
2022-11-24T09:06:29.523Z,298.12
2022-11-24T09:07:28.542Z,337.50
2022-11-24T09:08:28.511Z,360.00
2022-11-24T09:09:28.583Z,365.62
2022-11-24T09:10:28.464Z,365.62
2022-11-24T09:11:28.453Z,371.25
2022-11-24T09:12:29.212Z,360.00
2022-11-24T09:13:28.437Z,331.88
2022-11-24T09:14:28.416Z,315.00
2022-11-24T09:15:29.243Z,326.25
2022-11-24T09:16:28.499Z,337.50
2022-11-24T09:17:28.383Z,365.62
2022-11-24T09:18:30.393Z,410.62
2022-11-24T09:19:28.442Z,405.00
2022-11-24T09:22:06.718Z,298.12
2022-11-24T09:23:06.722Z,292.50
2022-11-24T09:24:06.728Z,292.50
2022-11-24T09:25:06.717Z,309.38
2022-11-24T09:26:06.671Z,303.75
2022-11-24T09:27:06.695Z,286.88
2022-11-24T09:28:06.687Z,286.88
2022-11-24T09:29:06.693Z,303.75
2022-11-24T09:30:06.650Z,326.25
2022-11-24T09:31:06.726Z,343.12
2022-11-24T09:32:07.092Z,348.75
2022-11-24T09:33:06.703Z,348.75
2022-11-24T09:34:06.594Z,326.25
2022-11-24T09:35:06.583Z,337.50
2022-11-24T09:36:06.619Z,376.88
2022-11-24T09:37:06.581Z,388.12
2022-11-24T09:38:06.649Z,393.75
2022-11-24T09:39:06.557Z,405.00
2022-11-24T09:40:06.551Z,450.00
2022-11-24T09:41:06.536Z,433.12
2022-11-24T09:42:06.536Z,405.00
2022-11-24T09:43:06.535Z,393.75
2022-11-24T09:44:06.494Z,388.12
2022-11-24T09:45:06.516Z,388.12
2022-11-24T09:46:06.811Z,388.12
2022-11-24T09:47:06.542Z,421.88
2022-11-24T09:48:06.518Z,399.38
2022-11-24T09:49:06.434Z,371.25
2022-11-24T09:50:06.456Z,405.00
2022-11-24T09:51:06.414Z,421.88
2022-11-24T09:52:06.511Z,596.25
2022-11-24T09:53:06.506Z,495.00
2022-11-24T09:54:06.376Z,506.25
2022-11-24T09:55:06.392Z,511.88
2022-11-24T09:56:06.389Z,506.25
2022-11-24T09:57:06.365Z,483.75
2022-11-24T09:58:06.443Z,461.25
2022-11-24T09:59:06.333Z,461.25
2022-11-24T10:00:06.338Z,444.38
2022-11-24T10:01:06.382Z,421.88
2022-11-24T10:02:06.393Z,466.88
2022-11-24T10:03:06.338Z,1153.12
2022-11-24T10:04:06.917Z,1136.25
2022-11-24T10:05:06.325Z,1108.12
2022-11-24T10:06:06.272Z,596.25
2022-11-24T10:07:06.243Z,528.75
2022-11-24T10:08:06.258Z,495.00
2022-11-24T10:09:06.240Z,461.25
2022-11-24T10:10:06.225Z,421.88
2022-11-24T10:11:06.214Z,433.12
2022-11-24T10:12:06.341Z,433.12
2022-11-24T10:13:06.231Z,421.88
2022-11-24T10:14:06.188Z,438.75
2022-11-24T10:15:06.186Z,450.00
2022-11-24T10:16:06.279Z,444.38
2022-11-24T10:17:06.150Z,399.38
2022-11-24T10:18:06.120Z,399.38
2022-11-24T10:19:06.143Z,455.62
2022-11-24T10:20:06.120Z,478.12
2022-11-24T10:21:06.093Z,568.12
2022-11-24T10:22:06.110Z,466.88
2022-11-24T10:23:06.066Z,444.38
2022-11-24T10:24:06.074Z,461.25
2022-11-24T10:25:06.075Z,500.62
2022-11-24T10:26:06.085Z,472.50
2022-11-24T10:27:06.032Z,399.38
2022-11-24T10:28:06.033Z,421.88
2022-11-24T10:29:06.007Z,399.38
2022-11-24T10:30:06.065Z,405.00
2022-11-24T10:31:06.024Z,388.12
2022-11-24T10:32:05.974Z,371.25
2022-11-24T10:33:05.995Z,354.38
2022-11-24T10:34:05.945Z,393.75
2022-11-24T10:35:06.011Z,433.12
2022-11-24T10:36:05.921Z,438.75
2022-11-24T10:37:06.124Z,427.50
2022-11-24T10:38:06.065Z,433.12
2022-11-24T10:39:05.914Z,556.88
2022-11-24T10:40:05.889Z,450.00
2022-11-24T10:41:05.895Z,961.88
2022-11-24T10:42:05.853Z,585.00
2022-11-24T10:43:05.934Z,371.25
2022-11-24T10:44:05.881Z,410.62
2022-11-24T10:45:05.855Z,382.50
2022-11-24T10:46:05.885Z,326.25
2022-11-24T10:47:06.005Z,348.75
2022-11-24T10:48:05.859Z,326.25
2022-11-24T10:49:05.783Z,331.88
2022-11-24T10:50:05.775Z,511.88
2022-11-24T10:51:05.838Z,399.38
2022-11-24T10:52:05.747Z,399.38
2022-11-24T10:53:05.738Z,376.88
2022-11-24T10:54:05.730Z,410.62
2022-11-24T10:55:05.722Z,804.38
2022-11-24T10:56:05.813Z,410.62
2022-11-24T10:57:05.719Z,388.12
2022-11-24T10:58:05.739Z,376.88
2022-11-24T10:59:05.733Z,444.38
2022-11-24T11:00:05.709Z,877.50
2022-11-24T11:01:05.721Z,1113.75
2022-11-24T11:02:05.931Z,703.12
2022-11-24T11:03:05.744Z,826.88
2022-11-24T11:04:05.705Z,1366.88
2022-11-24T11:05:05.663Z,1158.75
2022-11-24T11:06:05.615Z,1108.12
2022-11-24T11:07:05.612Z,1029.38
2022-11-24T11:08:05.876Z,1113.75
2022-11-24T11:09:05.617Z,1513.12
2022-11-24T11:10:05.576Z,1653.75
2022-11-24T11:11:05.567Z,1760.62
2022-11-24T11:12:35.855Z,1760.62
2022-11-24T11:13:06.726Z,1743.75
2022-11-24T11:14:13.130Z,1366.88
2022-11-24T11:15:05.512Z,1316.25
2022-11-24T11:16:05.540Z,1366.88
2022-11-24T11:17:05.494Z,1490.62
2022-11-24T11:18:05.499Z,669.38
2022-11-24T11:19:20.305Z,1035.00
2022-11-24T11:20:06.649Z,950.62
2022-11-24T11:21:05.486Z,669.38
2022-11-24T11:22:05.428Z,635.62
2022-11-24T11:23:05.449Z,686.25
2022-11-24T11:24:05.418Z,849.38
2022-11-24T11:25:05.481Z,669.38
2022-11-24T11:26:05.418Z,1035.00
2022-11-24T11:27:05.391Z,579.38
2022-11-24T11:28:09.103Z,545.62
2022-11-24T11:31:17.257Z,483.75
2022-11-24T11:34:10.905Z,489.38
2022-11-24T11:35:06.303Z,450.00
2022-11-24T11:36:05.290Z,444.38
2022-11-24T11:37:05.351Z,461.25
2022-11-24T11:38:05.300Z,455.62
2022-11-24T11:39:05.267Z,433.12
2022-11-24T11:40:05.278Z,427.50
2022-11-24T11:41:05.254Z,382.50
2022-11-24T11:42:05.329Z,354.38
2022-11-24T11:43:05.267Z,343.12
2022-11-24T11:44:05.212Z,360.00
2022-11-24T11:45:05.220Z,388.12
2022-11-24T11:46:05.269Z,466.88
2022-11-24T11:47:05.237Z,517.50
2022-11-24T11:48:05.194Z,472.50
2022-11-24T11:49:05.145Z,421.88
2022-11-24T11:50:05.134Z,433.12
2022-11-24T11:51:22.838Z,466.88
2022-11-24T11:52:06.103Z,399.38
2022-11-24T11:53:05.097Z,405.00
2022-11-24T11:54:05.200Z,433.12
2022-11-24T11:55:05.073Z,495.00
2022-11-24T11:56:05.098Z,455.62
2022-11-24T11:57:05.108Z,410.62
2022-11-24T11:58:05.073Z,495.00
2022-11-24T11:59:05.029Z,601.88
2022-11-24T12:00:05.101Z,618.75
2022-11-24T12:01:05.018Z,523.12
2022-11-24T12:02:05.093Z,1192.50
2022-11-24T12:03:05.161Z,894.38
2022-11-24T12:04:05.126Z,1524.38
2022-11-24T12:05:05.025Z,995.62
2022-11-24T12:06:04.951Z,1074.38
2022-11-24T12:07:04.938Z,1012.50
2022-11-24T12:08:09.375Z,1395.00
2022-11-24T12:09:20.258Z,1215.00
2022-11-24T12:10:05.917Z,1046.25
2022-11-24T12:11:04.913Z,523.12
2022-11-24T12:12:04.895Z,534.38
2022-11-24T12:13:04.925Z,911.25
2022-11-24T12:14:04.940Z,973.12
2022-11-24T12:15:10.569Z,635.62
2022-11-24T12:16:05.929Z,506.25
2022-11-24T12:17:04.844Z,427.50
2022-11-24T12:18:05.406Z,1451.25
2022-11-24T12:19:04.799Z,1513.12
2022-11-24T12:20:04.815Z,1490.62
2022-11-24T12:21:04.795Z,1237.50
2022-11-24T12:22:04.830Z,1063.12
2022-11-24T12:23:04.790Z,1080.00
2022-11-24T12:24:04.796Z,1046.25
2022-11-24T12:25:04.787Z,438.75
2022-11-24T12:26:04.726Z,410.62
2022-11-24T12:27:04.725Z,1361.25
2022-11-24T12:28:04.716Z,691.88
2022-11-24T12:29:04.718Z,388.12
2022-11-24T12:30:04.974Z,1158.75
2022-11-24T12:31:04.759Z,978.75
2022-11-24T12:32:04.757Z,1136.25
2022-11-24T12:33:04.700Z,731.25
2022-11-24T12:34:04.646Z,1203.75
2022-11-24T12:35:04.634Z,1125.00
2022-11-24T12:36:04.723Z,1288.12
2022-11-24T12:37:04.629Z,1344.38
2022-11-24T12:38:04.624Z,1237.50
2022-11-24T12:39:04.629Z,1001.25
2022-11-24T12:40:04.615Z,1153.12
2022-11-24T12:41:33.499Z,1018.12
2022-11-24T12:42:05.561Z,855.00
2022-11-24T12:43:04.558Z,815.62
2022-11-24T12:44:04.552Z,905.62
2022-11-24T12:45:04.535Z,866.25
2022-11-24T12:46:04.541Z,855.00
2022-11-24T12:47:04.575Z,883.12
2022-11-24T12:48:04.763Z,894.38
2022-11-24T12:49:04.487Z,860.62
2022-11-24T12:50:04.493Z,900.00
2022-11-24T12:51:04.452Z,967.50
2022-11-24T12:52:04.446Z,950.62
2022-11-24T12:53:04.470Z,905.62
2022-11-24T12:54:04.510Z,866.25
2022-11-24T12:55:04.432Z,838.12
2022-11-24T12:56:04.415Z,798.75
2022-11-24T12:57:04.405Z,658.12
2022-11-24T12:58:10.631Z,618.75
2022-11-24T12:59:05.457Z,703.12
2022-11-24T13:00:04.374Z,736.88